Portada
METAR-TAF:

METAR-TAF

Aeroports :

Jackson, Mississipí, Estats Units d'Amèrica

latitud: 32-19-11N, longitud: 090-04-39W, altitud: 105 m

Observació

L'informe es va fer fa 27 minuts, a les 07:54 UTC
Vent calma
Temperatura -1°C
Humitat 59%
Pressió 1029 hPa
Visibilitat: 16.1 km
Cel clar

METAR: KJAN 220754Z AUTO 00000KT 10SM CLR M01/M08 A3038 RMK AO2 SLP288 T10061078

Hora: 02:21 (08:21 UTC)

Pronòstic

L'informe es va fer fa 2 hores i 40 minuts, a les 05:41 UTC
Pronòstic vàlid del 22 a les 06 UTC al 23 a les 06 UTC
Vent 4 kt del Est/Sud-Est
Visibilitat: 10 km
Cel ennuvolat a una alçada de 25000 ft

TAF: KJAN 220541Z 2206/2306 11004KT P6SM BKN250

Observacions i pronòstics meteorològics de més de 4000 aeroports (METAR i TAF).

Les estacions disponibles són els punts grocs i vermells al mapa.

Posi el ratolí al punt desitjat per veure el nom de l'estació.

Feu clic per veure les observacions i els pronòstics meteorològics.

Per canviar el mapa: feu clic els botons verds amb una creu de color negre per apropar; al botó verd amb un guió per allunyar la imatge; o en les fletxes verdes per a mapes adjacents.


METAR-TAF: